Flight Track Log - Related Links

Times and Time Zones

All times are in EDT time to prevent confusion due to time zone crossing. See the EJM249 flight status page for this flight to view local times or setup timezone preferences in your user account.

Time Position Orientation Groundspeed Altitude Reporting Facility
EDT Latitude Longitude Course Direction KTS MPH feet Rate Location/Type
Tue 08:53:15 AM 44.9167 -92.9833 90° East 214 246 2,600  Level Minneapolis TRACON
Tue 08:54:15 AM 44.9167 -92.9000 90° East 227 261 3,200 1,114 Climbing Minneapolis TRACON
Tue 08:55:35 AM 44.8631 -92.8406 142° Southeast 268 308 5,200 1,563 Climbing Minneapolis Center
Tue 08:56:37 AM 44.7869 -92.8453 183° South 273 314 6,900 1,902 Climbing Minneapolis Center
Tue 08:57:38 AM 44.7119 -92.8536 185° South 269 310 9,100 2,585 Climbing Minneapolis Center
Tue 08:58:40 AM 44.6517 -92.8067 151° Southeast 270 311 12,200 2,719 Climbing Minneapolis Center
Tue 08:59:46 AM 44.6631 -92.6844 82° East 329 379 14,900 2,976 Climbing Minneapolis Center
Tue 09:00:47 AM 44.6797 -92.5219 82° East 355 409 18,500 3,073 Climbing Minneapolis Center
Tue 09:01:49 AM 44.6528 -92.3931 106° East 348 400 21,200 2,829 Climbing Minneapolis Center
Tue 09:02:50 AM 44.5936 -92.2783 126° Southeast 358 412 24,300 2,780 Climbing Minneapolis Center
Tue 09:03:52 AM 44.5333 -92.1631 126° Southeast 364 419 26,900 2,371 Climbing Minneapolis Center
Tue 09:04:54 AM 44.4692 -92.0394 126° Southeast 381 438 29,200 2,049 Climbing Minneapolis Center
Tue 09:05:55 AM 44.4022 -91.9117 126° Southeast 399 459 31,100 1,854 Climbing Minneapolis Center
Tue 09:06:57 AM 44.3389 -91.7731 123° Southeast 416 479 33,000 2,032 Climbing Minneapolis Center
Tue 09:07:59 AM 44.2719 -91.5908 117° Southeast 436 502 35,300 2,293 Climbing Minneapolis Center
Tue 09:09:00 AM 44.2158 -91.4461 118° Southeast 432 497 37,700 2,000 Climbing Minneapolis Center
Tue 09:10:02 AM 44.1600 -91.3014 118° Southeast 427 491 39,400 1,463 Climbing Minneapolis Center
Tue 09:11:03 AM 44.1053 -91.1586 118° Southeast 430 495 40,700 780 Climbing Minneapolis Center
Tue 09:12:05 AM 44.0478 -91.0103 118° Southeast 436 502 41,000 145 Climbing Minneapolis Center
Tue 09:13:07 AM 43.9900 -90.8436 116° Southeast 476 548 41,000  Level Minneapolis Center
Tue 09:14:08 AM 43.9353 -90.6786 115° Southeast 473 544 41,000  Level Minneapolis Center
Tue 09:15:10 AM 43.8686 -90.4811 115° Southeast 474 545 41,000  Level Minneapolis Center
Tue 09:16:11 AM 43.8122 -90.3164 115° Southeast 476 548 41,000  Level Minneapolis Center
Tue 09:17:06 AM 43.7694 -90.1858 114° Southeast 475 547 41,000  Level Chicago Center
Tue 09:18:08 AM 43.7147 -90.0222 115° Southeast 473 544 41,000  Level Chicago Center
Tue 09:19:10 AM 43.6458 -89.8244 116° Southeast 479 551 41,000  Level Chicago Center
Tue 09:20:12 AM 43.5908 -89.6614 115° Southeast 475 547 41,000  Level Chicago Center
Tue 09:21:14 AM 43.5347 -89.4994 115° Southeast 472 543 41,000  Level Chicago Center
Tue 09:22:16 AM 43.4764 -89.3381 116° Southeast 474 545 41,000  Level Chicago Center
Tue 09:23:18 AM 43.4197 -89.1775 116° Southeast 471 542 41,000  Level Chicago Center
Tue 09:24:20 AM 43.3550 -88.9853 115° Southeast 466 536 41,000  Level Chicago Center
Tue 09:25:22 AM 43.2925 -88.8133 116° Southeast 468 539 41,000  Level Chicago Center
Tue 09:26:24 AM 43.2347 -88.6539 116° Southeast 468 539 41,000  Level Chicago Center
Tue 09:27:26 AM 43.1781 -88.4917 116° Southeast 471 542 41,000  Level Chicago Center
Tue 09:28:28 AM 43.1147 -88.3161 116° Southeast 473 544 41,000  Level Chicago Center
Tue 09:29:30 AM 43.0561 -88.1572 117° Southeast 470 541 41,000  Level Chicago Center
Tue 09:30:33 AM 42.9989 -87.9992 116° Southeast 466 536 41,000  Level Chicago Center
Tue 09:31:35 AM 42.9403 -87.8403 117° Southeast 470 541 41,000  Level Chicago Center
Tue 09:32:37 AM 42.8819 -87.6800 116° Southeast 472 543 41,000  Level Chicago Center
Tue 09:33:39 AM 42.8219 -87.5208 117° Southeast 473 544 41,000  Level Chicago Center
Tue 09:34:41 AM 42.7506 -87.3311 117° Southeast 471 542 41,000  Level Chicago Center
Tue 09:35:43 AM 42.6906 -87.1717 117° Southeast 475 547 41,000  Level Chicago Center
Tue 09:36:45 AM 42.6297 -87.0131 117° Southeast 476 548 41,000  Level Chicago Center
Tue 09:37:47 AM 42.5653 -86.8442 117° Southeast 474 545 41,000  Level Chicago Center
Tue 09:38:49 AM 42.5047 -86.6856 117° Southeast 474 545 41,000  Level Chicago Center
Tue 09:39:51 AM 42.4372 -86.5094 117° Southeast 473 544 41,000  Level Chicago Center
Tue 09:40:53 AM 42.3756 -86.3514 118° Southeast 478 550 41,000  Level Chicago Center
Tue 09:41:55 AM 42.3139 -86.1958 118° Southeast 475 547 41,000  Level Chicago Center
Tue 09:42:58 AM 42.2475 -86.0242 118° Southeast 479 551 41,000  Level Chicago Center
Tue 09:44:00 AM 42.1889 -85.8789 119° Southeast 481 554 41,000  Level Chicago Center
Tue 09:45:02 AM 42.1139 -85.6900 118° Southeast 481 554 41,000  Level Chicago Center
Tue 09:46:04 AM 42.0511 -85.5314 118° Southeast 480 552 41,000  Level Chicago Center
Tue 09:47:06 AM 41.9947 -85.3869 118° Southeast 480 552 41,000  Level Chicago Center
Tue 09:48:08 AM 41.9169 -85.1928 118° Southeast 485 558 41,000  Level Chicago Center
Tue 09:49:10 AM 41.8522 -85.0303 118° Southeast 487 560 41,000  Level Chicago Center
Tue 09:50:12 AM 41.7861 -84.8678 119° Southeast 493 567 41,000  Level Chicago Center
Tue 09:51:14 AM 41.7197 -84.7081 119° Southeast 490 564 41,000  Level Chicago Center
Tue 09:52:16 AM 41.6539 -84.5500 119° Southeast 487 560 41,000  Level Chicago Center
Tue 09:53:19 AM 41.5764 -84.3992 124° Southeast 489 563 41,000  Level Chicago Center
Tue 09:54:21 AM 41.4986 -84.2517 125° Southeast 487 560 41,000  Level Chicago Center
Tue 09:55:17 AM 41.4142 -84.0933 125° Southeast 492 566 41,000  Level Cleveland Center
Tue 09:56:19 AM 41.3419 -83.9528 124° Southeast 491 565 41,000  Level Cleveland Center
Tue 09:57:22 AM 41.2600 -83.7964 125° Southeast 490 564 41,000  Level Cleveland Center
Tue 09:58:24 AM 41.1831 -83.6469 124° Southeast 491 565 41,000  Level Cleveland Center
Tue 09:59:26 AM 41.0931 -83.4725 124° Southeast 491 565 41,000  Level Cleveland Center
Tue 10:00:28 AM 41.0164 -83.3206 124° Southeast 491 565 41,000  Level Cleveland Center
Tue 10:01:30 AM 40.9392 -83.1700 124° Southeast 490 564 41,000  Level Cleveland Center
Tue 10:02:33 AM 40.8622 -83.0178 124° Southeast 493 567 41,000  Level Cleveland Center
Tue 10:03:15 AM 40.8086 -82.8831 118° Southeast 497 572 41,000  Level Indianapolis Center
Tue 10:04:17 AM 40.7447 -82.7214 118° Southeast 496 571 41,000  Level Indianapolis Center
Tue 10:05:19 AM 40.6803 -82.5578 117° Southeast 499 574 41,000  Level Indianapolis Center
Tue 10:06:21 AM 40.6144 -82.3958 118° Southeast 499 574 41,000  Level Indianapolis Center
Tue 10:07:23 AM 40.5494 -82.2319 118° Southeast 502 578 41,000  Level Indianapolis Center
Tue 10:08:57 AM 40.4394 -81.9592 118° Southeast 504 580 41,000  Level Cleveland Center
Tue 10:09:27 AM 40.4064 -81.8789 118° Southeast 506 582 41,000  Level Indianapolis Center
Tue 10:10:29 AM 40.3394 -81.7156 118° Southeast 506 582 41,000  Level Indianapolis Center
Tue 10:11:31 AM 40.2725 -81.5511 118° Southeast 508 585 41,000 -290 Level Indianapolis Center
Tue 10:12:33 AM 40.2036 -81.3861 119° Southeast 511 588 40,400 -1,113 Descending Indianapolis Center
Tue 10:13:35 AM 40.1181 -81.2381 127° Southeast 509 586 38,700 -1,632 Descending Indianapolis Center
Tue 10:14:38 AM 40.0289 -81.0975 130° Southeast 503 579 37,000 -1,536 Descending Indianapolis Center
Tue 10:15:40 AM 39.9222 -80.9269 129° Southeast 510 587 35,500 -968 Descending Indianapolis Center
Tue 10:16:42 AM 39.8308 -80.7819 129° Southeast 514 592 35,000 -242 Descending Indianapolis Center
Tue 10:17:44 AM 39.7386 -80.6386 130° Southeast 515 593 35,000  Level Indianapolis Center
Tue 10:18:16 AM 39.6919 -80.5603 128° Southeast 515 593 35,000  Level Cleveland Center
Tue 10:19:18 AM 39.6300 -80.3942 116° Southeast 538 619 35,000  Level Cleveland Center
Tue 10:19:48 AM 39.6086 -80.3067 108° East 521 600 35,000  Level Indianapolis Center
Tue 10:20:50 AM 39.5883 -80.1231 98° East 515 593 35,000 -191 Level Indianapolis Center
Tue 10:21:22 AM 39.5778 -80.0308 98° East 521 600 34,700 -2,745 Descending Cleveland Center
Tue 10:22:24 AM 39.5503 -79.8167 99° East 509 586 30,700 -3,097 Descending Cleveland Center
Tue 10:23:26 AM 39.5208 -79.6522 103° East 479 551 28,300 -1,897 Descending Cleveland Center
Tue 10:24:21 AM 39.4997 -79.5211 102° East 467 537 27,000 -678 Descending Washington Center
Tue 10:25:21 AM 39.4714 -79.3636 103° East 453 521 27,000 -793 Level Washington Center
Tue 10:26:22 AM 39.4386 -79.2058 105° East 453 521 25,400 -1,866 Descending Washington Center
Tue 10:27:20 AM 39.4117 -79.0594 103° East 441 507 23,300 -2,067 Descending Washington Center
Tue 10:28:21 AM 39.3886 -78.9161 102° East 417 480 21,300 -2,016 Descending Washington Center
Tue 10:29:22 AM 39.3611 -78.7778 104° East 406 467 19,200 -2,067 Descending Washington Center
Tue 10:30:20 AM 39.3356 -78.6319 103° East 393 452 17,200 -1,966 Descending Washington Center
Tue 10:31:21 AM 39.3117 -78.5022 103° East 377 434 15,300 -1,835 Descending Washington Center
Tue 10:32:21 AM 39.2856 -78.3750 105° East 372 428 13,500 -1,736 Descending Washington Center
Tue 10:33:22 AM 39.2381 -78.2714 121° Southeast 338 389 11,800 -1,537 Descending Washington Center
Tue 10:34:22 AM 39.1878 -78.1811 126° Southeast 325 374 10,400 -915 Descending Washington Center
Tue 10:35:20 AM 39.1397 -78.0911 125° Southeast 311 358 10,000 -458 Descending Washington Center
Tue 10:36:20 AM 39.0914 -78.0011 125° Southeast 306 352 9,500 -992 Descending Washington Center
Tue 10:37:21 AM 39.0453 -77.9142 124° Southeast 301 346 8,000 -1,377 Descending Washington Center
Tue 10:38:22 AM 39.0072 -77.8381 123° Southeast 293 337 6,700 -1,008 Descending Washington Center
Tue 10:39:20 AM 38.9672 -77.7408 118° Southeast 286 329 6,000 -353 Descending Washington Center
Tue 10:40:21 AM 38.9436 -77.6575 110° East 273 314 6,000 -364 Level Washington Center
Tue 10:41:32 AM 38.8833 -77.5833 136° Southeast 230 265 5,200 -458 Descending Potomac TRACON
Tue 10:42:32 AM 38.8167 -77.5667 169° South 204 235 5,000 -470 Descending Potomac TRACON
Tue 10:43:27 AM 38.8000 -77.5333 123° Southeast 207 238 4,300 -1,043 Descending Potomac TRACON
Tue 10:44:27 AM 38.8167 -77.4667 72° East 198 228 3,000 -850 Descending Potomac TRACON
Tue 10:45:27 AM 38.8667 -77.4667 360° North 154 177 2,600 -789 Descending Potomac TRACON
Tue 10:46:21 AM 38.9000 -77.4667 360° North 126 145 1,500 -1,000 Descending Potomac TRACON
Tue 10:47:21 AM 38.9333 -77.4667 360° North 121 139 700 -800 Descending Potomac TRACON
Tue 10:49:00 AM 38.9333 -77.4500 165° South  Level FlightAware Approximate
Tue 10:56:00 AM 38.9474 -77.4599 165° South  Level Estimated
Tue 10:57:00 AM 38.9474 -77.4599 165° South  Level Estimated
Tue 10:58:00 AM 38.9474 -77.4599 165° South  Level Estimated

Login

Don't have an account? Register now (free) for customized features, flight alerts, and more!